Time;durP1;ratioP1;P1;durP2;ratioP2;P2;SDS_P1;SDS_P2;PMS_P1;PMS_P2;Temp;Humidity;BMP_temperature;BMP_pressure;BME280_temperature;BME280_humidity;BME280_pressure;Samples;Min_cycle;Max_cycle;Signal;HPM_P1;HPM_P2
2024/03/12 00:00:15;;;;;;;0.47;0.47;;;;;;;9.99;75.71;101057.59;5065153;28;20025;-78
2024/03/12 00:02:44;;;;;;;1.65;1.55;;;;;;;9.96;75.87;101057.63;5077222;28;20028;-77
2024/03/12 00:05:18;;;;;;;0.28;0.28;;;;;;;9.91;76.01;101066.53;5077511;28;20024;-79
2024/03/12 00:07:45;;;;;;;0.40;0.40;;;;;;;9.93;75.73;101070.91;5070696;28;20123;-78
2024/03/12 00:10:17;;;;;;;0.10;0.10;;;;;;;9.93;75.67;101078.84;5068196;28;20051;-79
2024/03/12 00:12:47;;;;;;;0.60;0.60;;;;;;;9.94;75.71;101082.38;5056220;28;20396;-78
2024/03/12 00:15:17;;;;;;;1.90;1.85;;;;;;;9.92;75.74;101085.03;5067389;28;20044;-79
2024/03/12 00:17:44;;;;;;;4.63;1.98;;;;;;;9.95;75.64;101090.28;5071445;28;20498;-75
2024/03/12 00:20:45;;;;;;;2.28;1.10;;;;;;;9.95;75.49;101092.94;5077387;28;20037;-79
2024/03/12 00:22:59;;;;;;;1.95;1.65;;;;;;;9.96;75.41;101093.81;5073518;28;20115;-79
2024/03/12 00:25:26;;;;;;;0.25;0.25;;;;;;;10.02;75.36;101091.94;5071297;28;20063;-80
2024/03/12 00:27:56;;;;;;;1.05;1.05;;;;;;;9.97;75.50;101095.53;5062671;28;20044;-79
2024/03/12 00:30:27;;;;;;;1.85;0.80;;;;;;;9.97;75.59;101095.53;5072920;28;20495;-78
2024/03/12 00:32:54;;;;;;;1.10;1.00;;;;;;;9.97;75.45;101112.31;5072807;28;20479;-81
2024/03/12 00:35:23;;;;;;;0.28;0.28;;;;;;;9.98;75.78;101102.59;5072461;28;20170;-80
2024/03/12 00:37:51;;;;;;;16.63;1.13;;;;;;;9.97;75.61;101101.72;5069870;28;20028;-79
2024/03/12 00:40:22;;;;;;;5.07;1.23;;;;;;;9.94;75.84;101112.34;5073110;28;20039;-81
2024/03/12 00:42:48;;;;;;;0.63;0.63;;;;;;;10.01;75.55;101113.16;5071707;28;20028;-80
2024/03/12 00:45:19;;;;;;;0.30;0.30;;;;;;;10.01;75.50;101111.38;5067810;28;20036;-80
2024/03/12 00:47:46;;;;;;;6.13;0.80;;;;;;;10.01;75.52;101121.97;5067352;28;20028;-81
2024/03/12 00:50:14;;;;;;;0.73;0.73;;;;;;;10.00;75.62;101116.69;5067003;28;20499;-80
2024/03/12 00:52:43;;;;;;;1.05;0.63;;;;;;;9.99;75.57;101122.88;5073729;28;20514;-80
2024/03/12 00:55:10;;;;;;;0.28;0.28;;;;;;;9.98;75.58;101126.41;5078676;28;20059;-81
2024/03/12 00:57:38;;;;;;;2.05;1.95;;;;;;;9.98;75.74;101135.25;5078317;28;20449;-80
2024/03/12 01:00:39;;;;;;;0.30;0.30;;;;;;;9.96;75.80;101133.53;5077492;28;20025;-78
2024/03/12 01:02:54;;;;;;;1.80;1.25;;;;;;;9.95;75.92;101129.97;5074308;28;20487;-80
2024/03/12 01:05:25;;;;;;;0.28;0.28;;;;;;;9.91;75.90;101133.56;5065036;28;20025;-76
2024/03/12 01:07:58;;;;;;;0.20;0.20;;;;;;;9.87;76.10;101137.16;5063470;28;20033;-77
2024/03/12 01:10:26;;;;;;;0.50;0.50;;;;;;;9.84;76.00;101137.19;5063568;28;20518;-78
2024/03/12 01:12:54;;;;;;;0.70;0.70;;;;;;;9.89;75.73;101132.72;5055091;28;20036;-78
2024/03/12 01:15:23;;;;;;;0.30;0.30;;;;;;;9.91;75.67;101135.34;5069124;28;20496;-79
2024/03/12 01:17:51;;;;;;;1.23;0.73;;;;;;;9.89;75.90;101140.66;5070503;28;20032;-78
2024/03/12 01:20:19;;;;;;;0.85;0.85;;;;;;;9.85;76.15;101144.22;5073913;28;20108;-76
2024/03/12 01:22:45;;;;;;;0.38;0.38;;;;;;;9.91;76.03;101144.16;5080547;28;20086;-77
2024/03/12 01:25:12;;;;;;;2.03;1.92;;;;;;;9.84;76.17;101151.31;5072121;28;20036;-77
2024/03/12 01:27:41;;;;;;;2.85;2.72;;;;;;;9.89;76.05;101145.94;5065511;28;20116;-78
2024/03/12 01:30:14;;;;;;;0.52;0.52;;;;;;;9.88;76.27;101150.38;5077302;28;20032;-76
2024/03/12 01:32:41;;;;;;;0.40;0.40;;;;;;;9.88;75.90;101141.53;5083177;28;20033;-78
2024/03/12 01:35:08;;;;;;;0.40;0.40;;;;;;;9.86;76.27;101143.34;5067420;28;20032;-77
2024/03/12 01:37:35;;;;;;;0.25;0.25;;;;;;;9.80;76.36;101146.94;5082412;28;20032;-77
2024/03/12 01:40:14;;;;;;;1.85;1.75;;;;;;;9.78;76.52;101153.13;5075165;28;20032;-79
2024/03/12 01:42:47;;;;;;;1.08;1.08;;;;;;;9.76;76.38;101155.81;5077624;28;20036;-77
2024/03/12 01:45:14;;;;;;;0.25;0.25;;;;;;;9.71;76.35;101153.19;5069297;28;20310;-79
2024/03/12 01:47:41;;;;;;;0.57;0.57;;;;;;;9.78;76.19;101163.72;5080786;28;20032;-76
2024/03/12 01:50:08;;;;;;;0.38;0.38;;;;;;;9.66;76.71;101162.09;5075539;28;20067;-78
2024/03/12 01:52:35;;;;;;;1.65;1.55;;;;;;;9.76;76.50;101165.50;5074775;28;20028;-78
2024/03/12 01:55:01;;;;;;;1.85;0.75;;;;;;;9.74;76.43;101170.81;5083449;28;20046;-77
2024/03/12 01:57:27;;;;;;;1.38;1.38;;;;;;;9.63;76.75;101165.66;5066773;28;20055;-77
2024/03/12 01:59:53;;;;;;;7.57;1.92;;;;;;;9.71;76.51;101169.06;5068193;28;20029;-77
2024/03/12 02:02:20;;;;;;;1.00;1.00;;;;;;;9.68;76.72;101174.41;5059588;28;20058;-78
2024/03/12 02:04:46;;;;;;;6.10;3.03;;;;;;;9.73;76.61;101171.69;5063259;28;20102;-76
2024/03/12 02:07:12;;;;;;;0.10;0.10;;;;;;;9.61;76.65;101172.72;5058305;28;20492;-76
2024/03/12 02:09:43;;;;;;;0.57;0.57;;;;;;;9.71;76.37;101174.38;5054981;28;20037;-77
2024/03/12 02:12:09;;;;;;;1.48;1.38;;;;;;;9.63;76.61;101176.25;5055284;28;20060;-79
2024/03/12 02:14:35;;;;;;;1.17;0.85;;;;;;;9.65;76.28;101179.72;5059127;28;20039;-77
2024/03/12 02:17:05;;;;;;;0.50;0.50;;;;;;;9.62;76.18;101185.06;5052370;28;20041;-79
2024/03/12 02:19:33;;;;;;;5.93;2.63;;;;;;;9.63;76.30;101183.28;5055991;28;21351;-79
2024/03/12 02:22:00;;;;;;;0.28;0.28;;;;;;;9.65;76.26;101190.31;5064967;28;20032;-78
2024/03/12 02:24:26;;;;;;;0.55;0.55;;;;;;;9.65;76.31;101189.44;5064323;28;20044;-75
2024/03/12 02:26:54;;;;;;;4.38;1.00;;;;;;;9.63;76.02;101191.22;5068631;28;20032;-78
2024/03/12 02:29:20;;;;;;;0.20;0.20;;;;;;;9.61;76.40;101193.91;5066056;28;20024;-76
2024/03/12 02:31:46;;;;;;;0.30;0.30;;;;;;;9.62;76.23;101197.41;5063426;28;20036;-78
2024/03/12 02:34:12;;;;;;;1.10;1.10;;;;;;;9.53;76.53;101204.56;5056860;28;20055;-77
2024/03/12 02:36:40;;;;;;;0.80;0.80;;;;;;;9.57;75.98;101197.47;5079352;28;20033;-78
2024/03/12 02:39:07;;;;;;;0.40;0.40;;;;;;;9.51;76.39;101197.53;5057357;28;20400;-78
2024/03/12 02:41:35;;;;;;;33.28;2.70;;;;;;;9.51;76.05;101202.81;5059156;28;20540;-78
2024/03/12 02:44:01;;;;;;;0.20;0.20;;;;;;;9.50;76.00;101207.22;5061904;28;20110;-78
2024/03/12 02:46:27;;;;;;;1.65;1.55;;;;;;;9.50;76.26;101211.66;5061169;28;20493;-79
2024/03/12 02:48:54;;;;;;;1.52;1.17;;;;;;;9.49;76.12;101215.19;5052903;28;20029;-78
2024/03/12 02:51:20;;;;;;;0.10;0.10;;;;;;;9.54;75.96;101210.72;5053333;28;20051;-78
2024/03/12 02:53:46;;;;;;;0.90;0.90;;;;;;;9.54;75.93;101208.97;5051956;28;20040;-77
2024/03/12 02:56:12;;;;;;;0.20;0.20;;;;;;;9.47;76.31;101209.91;5060336;28;20048;-78
2024/03/12 02:58:39;;;;;;;0.38;0.38;;;;;;;9.56;76.36;101214.22;5061273;28;20048;-79
2024/03/12 03:01:05;;;;;;;0.38;0.38;;;;;;;9.49;76.46;101215.19;5057805;28;20038;-76
2024/03/12 03:03:33;;;;;;;19.85;1.27;;;;;;;9.49;76.14;101215.19;5054476;28;20028;-78
2024/03/12 03:06:00;;;;;;;0.75;0.75;;;;;;;9.35;76.85;101213.53;5050406;28;20029;-77
2024/03/12 03:08:27;;;;;;;0.20;0.20;;;;;;;9.36;76.71;101207.34;5051916;28;20036;-78
2024/03/12 03:10:54;;;;;;;0.20;0.20;;;;;;;9.39;76.60;101202.06;5053307;28;20032;-77
2024/03/12 03:13:20;;;;;;;0.20;0.20;;;;;;;9.32;76.73;101202.09;5061657;28;20111;-78
2024/03/12 03:15:46;;;;;;;0.82;0.82;;;;;;;9.34;76.39;101195.91;5073989;28;20033;-78
2024/03/12 03:18:13;;;;;;;1.02;0.43;;;;;;;9.29;76.43;101205.66;5054082;28;20032;-76
2024/03/12 03:20:39;;;;;;;1.23;1.13;;;;;;;9.32;76.67;101207.38;5052451;28;20033;-78
2024/03/12 03:23:05;;;;;;;1.30;1.30;;;;;;;9.31;76.27;101189.75;5052205;28;20101;-76
2024/03/12 03:25:32;;;;;;;0.20;0.20;;;;;;;9.27;76.60;101196.88;5056580;28;20071;-77
2024/03/12 03:27:58;;;;;;;0.10;0.10;;;;;;;9.35;76.29;101202.94;5049915;28;20036;-77
2024/03/12 03:30:24;;;;;;;0.77;0.73;;;;;;;9.29;76.28;101208.28;5050948;28;20054;-77
2024/03/12 03:32:51;;;;;;;1.33;1.33;;;;;;;9.31;76.12;101206.53;5052698;28;20044;-79
2024/03/12 03:35:18;;;;;;;0.60;0.60;;;;;;;9.35;75.95;101210.88;5050279;28;20044;-76
2024/03/12 03:37:46;;;;;;;2.72;1.75;;;;;;;9.36;76.19;101204.72;5056066;28;20140;-77
2024/03/12 03:40:22;;;;;;;1.63;1.52;;;;;;;9.30;76.19;101215.34;5051607;28;20032;-76
2024/03/12 03:42:50;;;;;;;0.98;0.98;;;;;;;9.34;76.12;101217.06;5062205;28;20027;-76
2024/03/12 03:45:17;;;;;;;0.30;0.30;;;;;;;9.38;75.96;101220.56;5072002;28;20055;-78
2024/03/12 03:47:44;;;;;;;0.30;0.30;;;;;;;9.35;75.87;101228.53;5056915;28;20070;-77
2024/03/12 03:50:11;;;;;;;1.73;0.98;;;;;;;9.37;75.74;101221.44;5055972;28;20116;-75
2024/03/12 03:52:38;;;;;;;0.75;0.75;;;;;;;9.34;75.74;101232.94;5052989;28;20052;-76
2024/03/12 03:55:05;;;;;;;2.75;2.03;;;;;;;9.28;76.12;101232.97;5065790;28;20039;-74
2024/03/12 03:57:31;;;;;;;0.20;0.20;;;;;;;9.36;75.81;101228.50;5055463;28;20522;-77
2024/03/12 03:59:58;;;;;;;0.88;0.88;;;;;;;9.38;75.74;101234.69;5055121;28;20040;-78
2024/03/12 04:02:24;;;;;;;1.65;1.27;;;;;;;9.45;75.82;101239.91;5050122;28;20037;-75
2024/03/12 04:04:51;;;;;;;0.10;0.10;;;;;;;9.46;75.72;101244.28;5064884;28;20039;-78
2024/03/12 04:07:19;;;;;;;0.90;0.90;;;;;;;9.41;76.04;101248.75;5069870;28;20021;-78
2024/03/12 04:09:46;;;;;;;0.55;0.55;;;;;;;9.46;75.99;101252.22;5068304;28;20051;-79
2024/03/12 04:12:13;;;;;;;0.85;0.85;;;;;;;9.46;75.88;101249.56;5075759;28;20041;-79
2024/03/12 04:14:40;;;;;;;0.77;0.77;;;;;;;9.50;75.69;101259.25;5058995;28;20035;-79
2024/03/12 04:17:06;;;;;;;0.30;0.30;;;;;;;9.51;75.67;101258.38;5052644;28;20025;-80
2024/03/12 04:19:35;;;;;;;0.10;0.10;;;;;;;9.54;75.56;101266.25;5057301;28;20048;-79
2024/03/12 04:22:01;;;;;;;0.30;0.30;;;;;;;9.53;75.80;101267.16;5067357;28;20029;-79
2024/03/12 04:24:27;;;;;;;1.05;1.05;;;;;;;9.57;75.67;101278.59;5063025;28;20096;-79
2024/03/12 04:26:54;;;;;;;0.52;0.52;;;;;;;9.54;75.47;101276.84;5060379;28;20025;-77
2024/03/12 04:29:20;;;;;;;0.10;0.10;;;;;;;9.50;75.40;101276.00;5055596;28;20151;-77
2024/03/12 04:31:46;;;;;;;0.10;0.10;;;;;;;9.49;75.54;101279.53;5051743;28;20491;-77
2024/03/12 04:34:13;;;;;;;0.47;0.47;;;;;;;9.49;75.43;101281.31;5056782;28;20440;-78
2024/03/12 04:36:40;;;;;;;0.40;0.40;;;;;;;9.33;75.69;101292.03;5055362;28;20717;-77
2024/03/12 04:39:38;;;;;;;1.75;1.65;;;;;;;9.42;75.46;101282.25;5054083;28;20025;-78
2024/03/12 04:41:53;;;;;;;0.20;0.20;;;;;;;9.41;75.38;101291.06;5050413;28;20037;-77
2024/03/12 04:44:19;;;;;;;2.40;2.30;;;;;;;9.46;75.53;101295.44;5054283;28;20024;-80
2024/03/12 04:46:46;;;;;;;1.27;0.90;;;;;;;9.51;75.08;101298.91;5073658;28;20031;-79
2024/03/12 04:49:15;;;;;;;2.55;1.98;;;;;;;9.49;75.29;101302.47;5058368;28;20203;-80
2024/03/12 04:51:41;;;;;;;0.85;0.85;;;;;;;9.42;75.28;101308.69;5057388;28;20118;-79
2024/03/12 04:54:07;;;;;;;0.10;0.10;;;;;;;9.36;75.28;101313.13;5056088;28;20017;-78
2024/03/12 04:56:33;;;;;;;0.45;0.45;;;;;;;9.44;75.18;101317.50;5053033;28;20037;-80
2024/03/12 04:59:00;;;;;;;0.20;0.20;;;;;;;9.38;75.07;101319.31;5058926;28;21296;-80
2024/03/12 05:01:26;;;;;;;1.17;1.15;;;;;;;9.45;75.42;101316.63;5055553;28;20029;-78
2024/03/12 05:03:52;;;;;;;0.10;0.10;;;;;;;9.37;75.29;101325.47;5054087;28;20036;-81
2024/03/12 05:06:19;;;;;;;0.20;0.20;;;;;;;9.42;75.43;101324.56;5053798;28;20029;-78
2024/03/12 05:08:45;;;;;;;0.25;0.25;;;;;;;9.35;75.62;101324.59;5054861;28;20036;-80
2024/03/12 05:11:14;;;;;;;0.10;0.10;;;;;;;9.37;75.59;101325.47;5055713;28;20039;-80
2024/03/12 05:13:42;;;;;;;0.30;0.30;;;;;;;9.43;75.07;101331.59;5059226;28;20439;-81
2024/03/12 05:16:08;;;;;;;0.20;0.20;;;;;;;9.48;75.25;101336.00;5068535;28;20568;-81
2024/03/12 05:18:34;;;;;;;0.17;0.17;;;;;;;9.45;75.18;101340.41;5071146;28;20048;-80
2024/03/12 05:21:02;;;;;;;0.13;0.13;;;;;;;9.48;75.28;101348.31;5064756;28;20021;-81
2024/03/12 05:23:28;;;;;;;1.35;0.75;;;;;;;9.49;75.18;101342.13;5056086;28;20029;-81
2024/03/12 05:25:55;;;;;;;0.43;0.43;;;;;;;9.48;75.38;101353.59;5065892;28;20029;-80
2024/03/12 05:28:21;;;;;;;2.00;1.90;;;;;;;9.49;75.15;101355.38;5055152;28;21935;-80
2024/03/12 05:30:49;;;;;;;0.20;0.20;;;;;;;9.51;75.28;101356.25;5065330;28;20030;-78
2024/03/12 05:33:15;;;;;;;2.08;1.98;;;;;;;9.47;75.52;101359.78;5072461;28;20696;-78
2024/03/12 05:35:47;;;;;;;0.20;0.20;;;;;;;9.50;75.44;101358.00;5056026;28;20582;-78
2024/03/12 05:38:54;;;;;;;0.20;0.20;;;;;;;9.49;75.54;101363.31;5053270;28;20055;-77
2024/03/12 05:41:25;;;;;;;1.30;1.20;;;;;;;9.48;75.51;101366.84;5053353;28;20086;-76
2024/03/12 05:49:19;;;;;;;0.20;0.20;;;;;;;9.48;75.46;101372.13;5052449;28;20562;-78
2024/03/12 05:51:45;;;;;;;0.10;0.10;;;;;;;9.49;75.50;101368.59;5056454;28;20036;-77
2024/03/12 05:54:11;;;;;;;0.77;0.77;;;;;;;9.51;75.42;101374.75;5052656;28;20512;-77
2024/03/12 05:56:38;;;;;;;0.65;0.65;;;;;;;9.47;75.49;101378.28;5056072;28;20051;-77
2024/03/12 05:59:04;;;;;;;1.02;0.65;;;;;;;9.53;75.63;101386.19;5069176;28;20035;-80
2024/03/12 06:01:31;;;;;;;0.90;0.90;;;;;;;9.56;75.64;101383.53;5062669;28;20024;-80
2024/03/12 06:03:57;;;;;;;0.10;0.10;;;;;;;9.53;75.42;101384.44;5067298;28;20086;-79
2024/03/12 06:06:23;;;;;;;0.47;0.40;;;;;;;9.37;75.74;101391.59;5062032;28;20947;-80
2024/03/12 06:08:49;;;;;;;1.45;1.20;;;;;;;9.48;75.50;101388.00;5072709;28;20073;-77
2024/03/12 06:11:16;;;;;;;0.85;0.85;;;;;;;9.44;75.63;101396.84;5069210;28;20068;-80
2024/03/12 06:13:44;;;;;;;0.82;0.82;;;;;;;9.48;75.53;101393.28;5064384;28;20036;-78
2024/03/12 06:16:11;;;;;;;0.70;0.70;;;;;;;9.52;75.43;101392.38;5059355;28;20033;-79
2024/03/12 06:18:37;;;;;;;0.20;0.20;;;;;;;9.55;75.07;101397.66;5067475;28;20056;-80
2024/03/12 06:21:05;;;;;;;0.30;0.30;;;;;;;9.51;75.12;101395.94;5068137;28;20048;-76
2024/03/12 06:23:31;;;;;;;0.10;0.10;;;;;;;9.52;75.43;101400.31;5071109;28;20057;-79
2024/03/12 06:25:57;;;;;;;1.90;1.80;;;;;;;9.48;75.45;101394.19;5074330;28;20040;-80
2024/03/12 06:28:27;;;;;;;0.73;0.73;;;;;;;9.52;75.28;101395.91;5077904;28;20035;-77
2024/03/12 06:30:54;;;;;;;0.30;0.30;;;;;;;9.53;75.51;101404.72;5062885;28;20150;-79
2024/03/12 06:33:21;;;;;;;0.15;0.15;;;;;;;9.53;75.41;101407.34;5068631;28;20593;-78
2024/03/12 06:35:48;;;;;;;0.28;0.28;;;;;;;9.52;75.35;101405.59;5066029;28;20051;-78
2024/03/12 06:38:15;;;;;;;1.48;1.48;;;;;;;9.52;75.38;101408.22;5064373;28;20124;-77
2024/03/12 06:40:41;;;;;;;0.10;0.10;;;;;;;9.46;75.58;101408.28;5074235;28;20043;-79
2024/03/12 06:43:13;;;;;;;0.63;0.63;;;;;;;9.44;75.54;101415.34;5066951;28;20055;-78
2024/03/12 06:45:40;;;;;;;0.25;0.25;;;;;;;9.44;75.69;101415.34;5068241;28;20025;-77
2024/03/12 06:48:07;;;;;;;0.10;0.10;;;;;;;9.45;75.42;101420.63;5071054;28;20114;-77
2024/03/12 06:50:33;;;;;;;0.15;0.15;;;;;;;9.45;75.55;101422.41;5076367;28;20040;-78
2024/03/12 06:52:59;;;;;;;0.10;0.10;;;;;;;9.49;75.55;101422.38;5065128;28;20052;-79
2024/03/12 06:55:26;;;;;;;0.10;0.10;;;;;;;9.43;75.57;101421.53;5067689;28;20047;-78
2024/03/12 06:57:59;;;;;;;0.10;0.10;;;;;;;9.41;75.71;101425.94;5058864;28;20039;-77
2024/03/12 07:00:44;;;;;;;1.40;1.35;;;;;;;9.43;75.94;101422.41;5061253;28;20086;-77
2024/03/12 07:03:10;;;;;;;0.10;0.10;;;;;;;9.46;75.83;101434.72;5063302;28;20484;-78
2024/03/12 07:05:37;;;;;;;0.20;0.20;;;;;;;9.50;75.72;101431.19;5060540;28;20504;-77
2024/03/12 07:08:06;;;;;;;0.65;0.65;;;;;;;9.41;75.91;101440.06;5072263;28;20036;-78
2024/03/12 07:10:33;;;;;;;0.57;0.55;;;;;;;9.48;76.00;101440.91;5062076;28;21197;-77
2024/03/12 07:13:02;;;;;;;0.30;0.30;;;;;;;9.50;76.22;101447.06;5068398;28;20123;-78
2024/03/12 07:15:31;;;;;;;0.10;0.10;;;;;;;9.51;76.35;101447.03;5069933;28;20539;-75
2024/03/12 07:17:57;;;;;;;0.15;0.15;;;;;;;9.54;76.31;101452.34;5054935;28;20043;-76
2024/03/12 07:20:24;;;;;;;1.48;1.05;;;;;;;9.55;76.08;101447.91;5076661;28;20036;-77
2024/03/12 07:22:51;;;;;;;0.30;0.30;;;;;;;9.53;76.25;101452.31;5072069;28;20043;-78
2024/03/12 07:25:17;;;;;;;0.10;0.10;;;;;;;9.59;76.18;101448.78;5072980;28;20092;-77
2024/03/12 07:27:43;;;;;;;0.10;0.10;;;;;;;9.62;76.26;101444.34;5073488;28;20494;-78
2024/03/12 07:30:10;;;;;;;0.10;0.10;;;;;;;9.58;76.28;101447.00;5072364;28;20043;-77
2024/03/12 07:32:37;;;;;;;0.10;0.10;;;;;;;9.64;76.02;101450.50;5072631;28;20042;-79
2024/03/12 07:35:04;;;;;;;0.10;0.10;;;;;;;9.63;76.21;101446.13;5074818;28;20030;-78
2024/03/12 07:37:34;;;;;;;0.10;0.10;;;;;;;9.68;75.99;101448.69;5069193;28;20438;-79
2024/03/12 07:40:01;;;;;;;0.60;0.60;;;;;;;9.68;76.18;101454.91;5069990;28;20809;-78
2024/03/12 07:42:28;;;;;;;0.20;0.20;;;;;;;9.73;76.05;101460.13;5072840;28;20033;-79
2024/03/12 07:44:54;;;;;;;0.20;0.20;;;;;;;9.70;76.14;101461.03;5070594;28;20024;-78
2024/03/12 07:47:20;;;;;;;0.40;0.40;;;;;;;9.58;76.10;101466.41;5072408;28;20372;-79
2024/03/12 07:49:46;;;;;;;0.10;0.10;;;;;;;9.61;75.99;101463.75;5080463;28;20031;-78
2024/03/12 07:52:13;;;;;;;0.40;0.40;;;;;;;9.67;75.82;101474.28;5067909;28;20044;-76
2024/03/12 07:54:40;;;;;;;0.20;0.20;;;;;;;9.66;75.94;101469.88;5071456;28;20586;-77
2024/03/12 07:57:07;;;;;;;0.20;0.20;;;;;;;9.71;75.85;101470.72;5071721;28;20032;-77
2024/03/12 07:59:34;;;;;;;0.20;0.20;;;;;;;9.74;75.53;101479.56;5075573;28;20021;-77
2024/03/12 08:02:11;;;;;;;1.35;1.35;;;;;;;9.72;75.67;101484.88;5073155;28;20490;-78
2024/03/12 08:04:42;;;;;;;0.03;0.03;;;;;;;9.68;75.39;101494.59;5074333;28;20082;-76
2024/03/12 08:07:09;;;;;;;0.50;0.50;;;;;;;9.68;75.22;101488.41;5071234;28;20115;-77
2024/03/12 08:09:36;;;;;;;1.88;1.75;;;;;;;9.68;75.18;101486.66;5067763;28;20438;-77
2024/03/12 08:12:07;;;;;;;0.30;0.20;;;;;;;9.77;75.30;101477.78;5067232;28;20560;-82
2024/03/12 08:14:35;;;;;;;0.75;0.75;;;;;;;9.84;75.05;101473.31;5059696;28;20021;-82
2024/03/12 08:17:04;;;;;;;0.10;0.10;;;;;;;9.84;74.85;101476.84;5080349;28;20024;-84
2024/03/12 08:19:33;;;;;;;0.10;0.10;;;;;;;9.93;74.90;101483.84;5074637;28;20028;-81
2024/03/12 08:22:02;;;;;;;0.85;0.85;;;;;;;9.97;74.67;101482.03;5078124;28;20054;-84
2024/03/12 08:24:29;;;;;;;3.97;3.65;;;;;;;10.01;75.01;101486.44;5073192;28;20064;-83
2024/03/12 08:26:56;;;;;;;0.50;0.50;;;;;;;9.97;74.70;101490.88;5073005;28;20459;-83
2024/03/12 08:29:23;;;;;;;0.25;0.25;;;;;;;10.04;74.69;101489.94;5076516;28;20036;-82
2024/03/12 08:31:53;;;;;;;1.63;1.55;;;;;;;10.04;74.33;101495.22;5071780;28;20048;-82
2024/03/12 08:34:20;;;;;;;0.65;0.65;;;;;;;10.12;74.62;101502.22;5076132;28;20033;-83
2024/03/12 08:36:47;;;;;;;5.05;1.27;;;;;;;10.10;74.03;101498.72;5070818;28;20032;-83
2024/03/12 08:39:14;;;;;;;0.63;0.63;;;;;;;10.19;74.04;101501.28;5067275;28;20024;-78
2024/03/12 08:41:41;;;;;;;1.92;1.83;;;;;;;10.26;74.21;101500.34;5073808;28;20498;-79
2024/03/12 08:44:08;;;;;;;0.13;0.13;;;;;;;10.33;74.23;101499.41;5071640;28;20048;-78
2024/03/12 08:46:35;;;;;;;1.30;1.20;;;;;;;10.40;74.11;101502.91;5075967;28;20029;-78
2024/03/12 08:49:01;;;;;;;0.50;0.50;;;;;;;10.50;73.97;101503.72;5075193;28;20068;-77
2024/03/12 08:51:33;;;;;;;0.10;0.10;;;;;;;10.56;74.22;101508.09;5076419;28;20028;-77
2024/03/12 08:54:01;;;;;;;0.20;0.20;;;;;;;10.55;73.35;101506.31;5062059;28;20029;-78
2024/03/12 08:56:29;;;;;;;0.52;0.52;;;;;;;10.58;73.71;101507.19;5069122;28;20060;-77
2024/03/12 08:58:57;;;;;;;0.10;0.10;;;;;;;10.60;73.52;101505.38;5071391;28;20031;-77
2024/03/12 09:01:24;;;;;;;5.03;1.25;;;;;;;10.53;72.65;101514.28;5078139;28;20029;-78
2024/03/12 09:03:50;;;;;;;0.43;0.43;;;;;;;10.57;72.65;101508.06;5078384;28;20082;-77
2024/03/12 09:06:16;;;;;;;1.58;1.50;;;;;;;10.61;72.55;101506.28;5068423;28;20599;-79
2024/03/12 09:08:43;;;;;;;0.22;0.22;;;;;;;10.63;72.96;101512.41;5071735;28;20044;-78
2024/03/12 09:11:15;;;;;;;0.10;0.10;;;;;;;10.66;72.38;101510.63;5068458;28;20028;-78
2024/03/12 09:13:41;;;;;;;0.52;0.52;;;;;;;10.66;72.18;101512.41;5067261;28;20035;-77
2024/03/12 09:16:10;;;;;;;0.40;0.40;;;;;;;10.60;70.71;101502.72;5072524;28;20036;-78
2024/03/12 09:18:36;;;;;;;0.30;0.30;;;;;;;10.62;70.88;101503.59;5069301;28;20133;-78
2024/03/12 09:21:04;;;;;;;0.28;0.28;;;;;;;10.68;71.40;101513.28;5072954;28;20502;-79
2024/03/12 09:23:33;;;;;;;1.95;1.55;;;;;;;10.65;70.28;101510.63;5074420;28;20043;-79
2024/03/12 09:25:59;;;;;;;0.22;0.22;;;;;;;10.65;70.17;101511.53;5079108;28;20020;-80
2024/03/12 09:28:26;;;;;;;0.80;0.63;;;;;;;10.79;70.03;101511.38;5074445;28;20062;-80
2024/03/12 09:30:54;;;;;;;0.30;0.30;;;;;;;10.88;70.69;101510.41;5080079;28;20027;-80
2024/03/12 09:33:20;;;;;;;2.35;0.75;;;;;;;11.00;71.14;101514.69;5073832;28;20398;-78
2024/03/12 09:35:48;;;;;;;1.30;1.20;;;;;;;11.02;71.18;101512.03;5071058;28;20044;-79
2024/03/12 09:38:15;;;;;;;0.65;0.65;;;;;;;11.06;69.83;101509.31;5070328;28;20086;-78
2024/03/12 09:40:42;;;;;;;3.25;2.30;;;;;;;11.12;69.74;101516.34;5070321;28;20024;-77
2024/03/12 09:43:12;;;;;;;0.20;0.20;;;;;;;11.24;70.83;101512.66;5081839;28;20041;-78
2024/03/12 09:45:39;;;;;;;0.10;0.10;;;;;;;11.33;70.95;101523.16;5074886;28;20073;-78
2024/03/12 09:48:08;;;;;;;0.68;0.68;;;;;;;11.32;70.70;101516.97;5084344;28;20020;-78
2024/03/12 09:50:35;;;;;;;0.77;0.77;;;;;;;11.40;70.90;101521.31;5086046;28;20024;-78
2024/03/12 09:53:02;;;;;;;0.80;0.80;;;;;;;11.37;70.19;101522.22;5090656;28;20042;-76
2024/03/12 09:55:31;;;;;;;1.60;1.50;;;;;;;11.36;69.81;101516.94;5094429;28;20032;-78
2024/03/12 09:57:58;;;;;;;0.43;0.28;;;;;;;11.30;69.54;101524.09;5085857;28;20016;-79
2024/03/12 10:00:28;;;;;;;4.72;4.32;;;;;;;11.28;68.34;101520.56;5077455;28;20545;-80
2024/03/12 10:02:55;;;;;;;0.52;0.47;;;;;;;11.27;69.48;101521.44;5080494;28;20082;-80
2024/03/12 10:05:25;;;;;;;1.42;1.42;;;;;;;11.32;69.10;101530.22;5084245;28;20033;-79
2024/03/12 10:08:09;;;;;;;0.22;0.22;;;;;;;11.52;69.25;101523.81;5084519;28;20116;-80
2024/03/12 10:10:38;;;;;;;0.68;0.55;;;;;;;11.57;69.08;101524.63;5077654;28;20017;-79
2024/03/12 10:13:05;;;;;;;1.05;1.05;;;;;;;11.58;67.97;101517.56;5083095;28;20443;-80
2024/03/12 10:15:31;;;;;;;0.20;0.20;;;;;;;11.65;67.09;101520.09;5070881;28;20053;-80
2024/03/12 10:18:00;;;;;;;2.88;1.38;;;;;;;11.70;66.70;101517.38;5074792;28;20052;-81
2024/03/12 10:20:27;;;;;;;2.42;2.30;;;;;;;11.82;67.28;101517.22;5068400;28;20032;-80
2024/03/12 10:23:09;;;;;;;0.10;0.10;;;;;;;12.05;67.54;101507.16;5067982;28;20046;-81
2024/03/12 10:25:36;;;;;;;0.20;0.20;;;;;;;12.01;65.12;101506.31;5078825;28;20107;-81
2024/03/12 10:28:05;;;;;;;1.63;1.52;;;;;;;12.10;65.87;101506.19;5074510;28;20432;-81
2024/03/12 10:30:36;;;;;;;0.15;0.15;;;;;;;12.06;64.35;101506.25;5075404;28;20021;-81
2024/03/12 10:35:50;;;;;;;2.03;1.92;;;;;;;11.87;66.12;101508.28;5120151;27;20409;-80
2024/03/12 10:38:32;;;;;;;1.50;1.42;;;;;;;12.14;65.26;101512.34;5087915;28;20044;-79
2024/03/12 10:41:18;;;;;;;0.77;0.77;;;;;;;12.11;64.63;101507.97;5093278;28;20431;-79
2024/03/12 10:43:47;;;;;;;0.35;0.35;;;;;;;12.04;63.72;101510.75;5092460;28;20044;-78
2024/03/12 10:46:16;;;;;;;0.40;0.40;;;;;;;12.06;64.34;101514.22;5093169;28;20104;-79
2024/03/12 10:48:45;;;;;;;3.05;2.85;;;;;;;11.98;64.60;101507.25;5095462;28;20037;-79
2024/03/12 10:51:13;;;;;;;0.82;0.82;;;;;;;11.98;64.02;101507.25;5092431;28;20028;-80
2024/03/12 10:53:42;;;;;;;0.10;0.10;;;;;;;11.94;62.77;101510.84;5095078;28;20118;-80
2024/03/12 10:56:09;;;;;;;0.20;0.20;;;;;;;12.05;63.57;101504.50;5093781;28;20024;-80
2024/03/12 10:58:37;;;;;;;1.92;1.85;;;;;;;12.23;64.11;101514.84;5094301;28;20027;-79
2024/03/12 11:01:05;;;;;;;0.15;0.15;;;;;;;12.28;64.54;101504.16;5092894;28;20024;-79
2024/03/12 11:03:34;;;;;;;0.20;0.20;;;;;;;12.27;63.02;101513.91;5094469;28;20085;-80
2024/03/12 11:06:02;;;;;;;0.68;0.68;;;;;;;12.34;62.95;101503.19;5094306;28;20024;-80
2024/03/12 11:08:29;;;;;;;1.85;1.75;;;;;;;12.43;62.92;101514.50;5092461;28;20024;-79
2024/03/12 11:10:57;;;;;;;1.63;1.55;;;;;;;12.60;62.68;101508.03;5096121;28;20031;-80
2024/03/12 11:13:23;;;;;;;0.98;0.98;;;;;;;12.60;61.84;101506.25;5093456;28;20024;-79
2024/03/12 11:15:51;;;;;;;1.58;0.65;;;;;;;12.64;61.32;101500.91;5094927;28;20035;-83
2024/03/12 11:18:36;;;;;;;0.90;0.90;;;;;;;12.82;60.82;101508.50;5090021;28;20020;-77
2024/03/12 11:21:03;;;;;;;0.85;0.85;;;;;;;12.68;61.20;101494.59;5089728;28;20055;-80
2024/03/12 11:23:31;;;;;;;4.20;1.95;;;;;;;12.92;60.97;101495.91;5089285;28;20078;-79
2024/03/12 11:26:05;;;;;;;2.58;2.47;;;;;;;13.10;60.10;101494.69;5087849;28;20099;-79
2024/03/12 11:28:32;;;;;;;0.30;0.30;;;;;;;13.11;59.67;101497.31;5090862;28;20131;-80
2024/03/12 11:33:45;;;;;;;1.75;1.38;;;;;;;13.25;59.78;101488.19;5149607;27;240599;-78
2024/03/12 11:38:51;;;;;;;2.03;1.92;;;;;;;13.27;60.79;101492.56;5116412;27;20419;-79
2024/03/12 11:41:18;;;;;;;1.25;1.25;;;;;;;13.50;60.10;101485.03;5094078;28;20089;-78
2024/03/12 11:43:44;;;;;;;2.13;1.95;;;;;;;13.67;60.17;101479.31;5092534;28;20036;-80
2024/03/12 11:46:15;;;;;;;0.45;0.45;;;;;;;13.67;57.81;101472.22;5095001;28;20035;-81
2024/03/12 11:48:42;;;;;;;0.45;0.45;;;;;;;13.85;58.64;101478.88;5094545;28;20035;-81